sensor_id;sensor_type;location;lat;lon;timestamp;P1;durP1;ratioP1;P2;durP2;ratioP2
11777;SDS011;5946;51.770;8.548;2023-02-02T00:01:51;14.27;;;3.13;;
11777;SDS011;5946;51.770;8.548;2023-02-02T00:04:22;14.10;;;3.07;;
11777;SDS011;5946;51.770;8.548;2023-02-02T00:06:49;11.73;;;3.33;;
11777;SDS011;5946;51.770;8.548;2023-02-02T00:09:16;11.63;;;2.60;;
11777;SDS011;5946;51.770;8.548;2023-02-02T00:11:42;12.77;;;3.47;;
11777;SDS011;5946;51.770;8.548;2023-02-02T00:14:08;14.33;;;3.07;;
11777;SDS011;5946;51.770;8.548;2023-02-02T00:16:36;16.80;;;3.67;;
11777;SDS011;5946;51.770;8.548;2023-02-02T00:19:03;18.47;;;3.20;;
11777;SDS011;5946;51.770;8.548;2023-02-02T00:21:30;9.83;;;2.70;;
11777;SDS011;5946;51.770;8.548;2023-02-02T00:23:56;14.27;;;3.43;;
11777;SDS011;5946;51.770;8.548;2023-02-02T00:26:22;15.40;;;3.50;;
11777;SDS011;5946;51.770;8.548;2023-02-02T00:28:48;17.23;;;3.10;;
11777;SDS011;5946;51.770;8.548;2023-02-02T00:31:14;16.00;;;3.10;;
11777;SDS011;5946;51.770;8.548;2023-02-02T00:33:43;10.93;;;2.90;;
11777;SDS011;5946;51.770;8.548;2023-02-02T00:36:09;15.97;;;3.60;;
11777;SDS011;5946;51.770;8.548;2023-02-02T00:38:35;17.40;;;3.33;;
11777;SDS011;5946;51.770;8.548;2023-02-02T00:41:02;13.47;;;3.33;;
11777;SDS011;5946;51.770;8.548;2023-02-02T00:43:28;12.70;;;2.90;;
11777;SDS011;5946;51.770;8.548;2023-02-02T00:45:54;18.60;;;3.50;;
11777;SDS011;5946;51.770;8.548;2023-02-02T00:48:20;15.37;;;3.10;;
11777;SDS011;5946;51.770;8.548;2023-02-02T00:50:46;14.30;;;3.43;;
11777;SDS011;5946;51.770;8.548;2023-02-02T00:53:12;16.87;;;3.40;;
11777;SDS011;5946;51.770;8.548;2023-02-02T00:55:38;18.53;;;3.00;;
11777;SDS011;5946;51.770;8.548;2023-02-02T00:58:04;18.83;;;3.67;;
11777;SDS011;5946;51.770;8.548;2023-02-02T01:00:30;19.80;;;3.23;;
11777;SDS011;5946;51.770;8.548;2023-02-02T01:02:57;13.13;;;3.00;;
11777;SDS011;5946;51.770;8.548;2023-02-02T01:05:28;13.47;;;2.73;;
11777;SDS011;5946;51.770;8.548;2023-02-02T01:07:54;17.77;;;3.73;;
11777;SDS011;5946;51.770;8.548;2023-02-02T01:10:20;11.23;;;3.13;;
11777;SDS011;5946;51.770;8.548;2023-02-02T01:12:46;15.20;;;2.67;;
11777;SDS011;5946;51.770;8.548;2023-02-02T01:15:12;13.30;;;2.63;;
11777;SDS011;5946;51.770;8.548;2023-02-02T01:17:38;18.40;;;3.07;;
11777;SDS011;5946;51.770;8.548;2023-02-02T01:20:05;16.50;;;2.93;;
11777;SDS011;5946;51.770;8.548;2023-02-02T01:22:31;18.50;;;2.90;;
11777;SDS011;5946;51.770;8.548;2023-02-02T01:25:02;10.73;;;2.57;;
11777;SDS011;5946;51.770;8.548;2023-02-02T01:27:28;16.07;;;3.00;;
11777;SDS011;5946;51.770;8.548;2023-02-02T01:29:54;11.47;;;2.97;;
11777;SDS011;5946;51.770;8.548;2023-02-02T01:32:20;16.43;;;2.57;;
11777;SDS011;5946;51.770;8.548;2023-02-02T01:34:46;16.33;;;3.43;;
11777;SDS011;5946;51.770;8.548;2023-02-02T01:37:12;16.10;;;2.90;;
11777;SDS011;5946;51.770;8.548;2023-02-02T01:39:38;11.60;;;2.77;;
11777;SDS011;5946;51.770;8.548;2023-02-02T01:42:10;12.07;;;2.23;;
11777;SDS011;5946;51.770;8.548;2023-02-02T01:45:05;14.30;;;3.13;;
11777;SDS011;5946;51.770;8.548;2023-02-02T01:47:34;8.87;;;2.50;;
11777;SDS011;5946;51.770;8.548;2023-02-02T01:50:02;10.53;;;2.87;;
11777;SDS011;5946;51.770;8.548;2023-02-02T01:52:29;13.47;;;2.70;;
11777;SDS011;5946;51.770;8.548;2023-02-02T01:54:57;16.00;;;2.70;;
11777;SDS011;5946;51.770;8.548;2023-02-02T01:57:25;14.23;;;2.60;;
11777;SDS011;5946;51.770;8.548;2023-02-02T01:59:54;12.57;;;2.50;;
11777;SDS011;5946;51.770;8.548;2023-02-02T02:02:21;14.33;;;2.97;;
11777;SDS011;5946;51.770;8.548;2023-02-02T02:04:48;18.83;;;2.73;;
11777;SDS011;5946;51.770;8.548;2023-02-02T02:07:15;16.37;;;2.67;;
11777;SDS011;5946;51.770;8.548;2023-02-02T02:09:41;11.50;;;2.83;;
11777;SDS011;5946;51.770;8.548;2023-02-02T02:12:13;16.20;;;3.00;;
11777;SDS011;5946;51.770;8.548;2023-02-02T02:14:40;9.87;;;2.90;;
11777;SDS011;5946;51.770;8.548;2023-02-02T02:34:06;14.73;;;2.83;;
11777;SDS011;5946;51.770;8.548;2023-02-02T02:39:03;13.23;;;2.50;;
11777;SDS011;5946;51.770;8.548;2023-02-02T02:41:31;10.90;;;2.30;;
11777;SDS011;5946;51.770;8.548;2023-02-02T02:43:59;12.10;;;2.53;;
11777;SDS011;5946;51.770;8.548;2023-02-02T02:46:25;10.70;;;2.50;;
11777;SDS011;5946;51.770;8.548;2023-02-02T02:48:52;10.77;;;2.23;;
11777;SDS011;5946;51.770;8.548;2023-02-02T02:54:05;10.67;;;2.40;;
11777;SDS011;5946;51.770;8.548;2023-02-02T02:56:32;8.53;;;2.13;;
11777;SDS011;5946;51.770;8.548;2023-02-02T02:59:09;8.23;;;2.07;;
11777;SDS011;5946;51.770;8.548;2023-02-02T03:01:43;14.57;;;2.33;;
11777;SDS011;5946;51.770;8.548;2023-02-02T03:04:22;9.10;;;2.53;;
11777;SDS011;5946;51.770;8.548;2023-02-02T03:06:58;15.93;;;2.60;;
11777;SDS011;5946;51.770;8.548;2023-02-02T03:09:27;12.77;;;2.80;;
11777;SDS011;5946;51.770;8.548;2023-02-02T03:11:56;14.43;;;2.40;;
11777;SDS011;5946;51.770;8.548;2023-02-02T03:14:23;12.40;;;2.70;;
11777;SDS011;5946;51.770;8.548;2023-02-02T03:16:50;14.37;;;3.20;;
11777;SDS011;5946;51.770;8.548;2023-02-02T03:19:16;11.70;;;3.07;;
11777;SDS011;5946;51.770;8.548;2023-02-02T03:21:43;11.93;;;3.00;;
11777;SDS011;5946;51.770;8.548;2023-02-02T03:24:09;11.67;;;2.93;;
11777;SDS011;5946;51.770;8.548;2023-02-02T03:26:35;16.50;;;3.77;;
11777;SDS011;5946;51.770;8.548;2023-02-02T03:29:01;10.73;;;3.27;;
11777;SDS011;5946;51.770;8.548;2023-02-02T03:31:28;15.60;;;4.23;;
11777;SDS011;5946;51.770;8.548;2023-02-02T03:33:54;15.97;;;3.93;;
11777;SDS011;5946;51.770;8.548;2023-02-02T03:36:20;20.70;;;4.03;;
11777;SDS011;5946;51.770;8.548;2023-02-02T03:38:46;14.40;;;4.47;;
11777;SDS011;5946;51.770;8.548;2023-02-02T03:41:12;16.70;;;3.93;;
11777;SDS011;5946;51.770;8.548;2023-02-02T03:43:39;14.33;;;4.03;;
11777;SDS011;5946;51.770;8.548;2023-02-02T03:46:05;20.50;;;4.33;;
11777;SDS011;5946;51.770;8.548;2023-02-02T03:48:34;16.23;;;3.97;;
11777;SDS011;5946;51.770;8.548;2023-02-02T03:51:03;18.83;;;4.90;;
11777;SDS011;5946;51.770;8.548;2023-02-02T03:53:29;24.07;;;4.33;;
11777;SDS011;5946;51.770;8.548;2023-02-02T03:55:55;17.07;;;4.40;;
11777;SDS011;5946;51.770;8.548;2023-02-02T03:58:21;15.97;;;4.73;;
11777;SDS011;5946;51.770;8.548;2023-02-02T04:00:47;17.53;;;4.47;;
11777;SDS011;5946;51.770;8.548;2023-02-02T04:03:13;18.03;;;4.20;;
11777;SDS011;5946;51.770;8.548;2023-02-02T04:05:39;15.03;;;4.63;;
11777;SDS011;5946;51.770;8.548;2023-02-02T04:08:05;18.03;;;4.70;;
11777;SDS011;5946;51.770;8.548;2023-02-02T04:10:31;20.07;;;5.13;;
11777;SDS011;5946;51.770;8.548;2023-02-02T04:12:57;17.13;;;4.60;;
11777;SDS011;5946;51.770;8.548;2023-02-02T04:15:22;19.90;;;5.27;;
11777;SDS011;5946;51.770;8.548;2023-02-02T04:17:48;21.07;;;6.03;;
11777;SDS011;5946;51.770;8.548;2023-02-02T04:20:14;28.07;;;6.13;;
11777;SDS011;5946;51.770;8.548;2023-02-02T04:22:40;23.90;;;5.37;;
11777;SDS011;5946;51.770;8.548;2023-02-02T04:25:06;19.47;;;5.50;;
11777;SDS011;5946;51.770;8.548;2023-02-02T04:27:32;14.87;;;5.03;;
11777;SDS011;5946;51.770;8.548;2023-02-02T04:29:58;20.73;;;5.40;;
11777;SDS011;5946;51.770;8.548;2023-02-02T04:32:24;17.57;;;5.53;;
11777;SDS011;5946;51.770;8.548;2023-02-02T04:34:50;20.90;;;6.27;;
11777;SDS011;5946;51.770;8.548;2023-02-02T04:37:16;21.40;;;5.10;;
11777;SDS011;5946;51.770;8.548;2023-02-02T04:39:42;22.23;;;5.83;;
11777;SDS011;5946;51.770;8.548;2023-02-02T04:42:08;20.37;;;5.53;;
11777;SDS011;5946;51.770;8.548;2023-02-02T04:44:34;18.40;;;5.20;;
11777;SDS011;5946;51.770;8.548;2023-02-02T04:47:00;18.13;;;5.80;;
11777;SDS011;5946;51.770;8.548;2023-02-02T04:49:26;23.40;;;6.50;;
11777;SDS011;5946;51.770;8.548;2023-02-02T04:51:52;28.93;;;6.30;;
11777;SDS011;5946;51.770;8.548;2023-02-02T04:54:18;17.30;;;6.20;;
11777;SDS011;5946;51.770;8.548;2023-02-02T04:56:43;17.53;;;5.90;;
11777;SDS011;5946;51.770;8.548;2023-02-02T04:59:09;23.97;;;7.03;;
11777;SDS011;5946;51.770;8.548;2023-02-02T05:01:35;21.63;;;6.37;;
11777;SDS011;5946;51.770;8.548;2023-02-02T05:04:01;21.00;;;6.27;;
11777;SDS011;5946;51.770;8.548;2023-02-02T05:06:27;21.27;;;6.10;;
11777;SDS011;5946;51.770;8.548;2023-02-02T05:08:53;23.63;;;6.40;;
11777;SDS011;5946;51.770;8.548;2023-02-02T05:11:20;29.27;;;7.00;;
11777;SDS011;5946;51.770;8.548;2023-02-02T05:13:47;22.30;;;7.27;;
11777;SDS011;5946;51.770;8.548;2023-02-02T05:16:14;15.70;;;5.37;;
11777;SDS011;5946;51.770;8.548;2023-02-02T05:18:40;19.03;;;6.40;;
11777;SDS011;5946;51.770;8.548;2023-02-02T05:21:06;20.43;;;5.70;;
11777;SDS011;5946;51.770;8.548;2023-02-02T05:23:32;25.93;;;6.40;;
11777;SDS011;5946;51.770;8.548;2023-02-02T05:25:58;20.07;;;5.37;;
11777;SDS011;5946;51.770;8.548;2023-02-02T05:28:24;25.63;;;6.00;;
11777;SDS011;5946;51.770;8.548;2023-02-02T05:30:50;21.03;;;5.87;;
11777;SDS011;5946;51.770;8.548;2023-02-02T05:33:17;28.60;;;6.40;;
11777;SDS011;5946;51.770;8.548;2023-02-02T05:35:44;22.70;;;6.77;;
11777;SDS011;5946;51.770;8.548;2023-02-02T05:38:10;18.50;;;6.50;;
11777;SDS011;5946;51.770;8.548;2023-02-02T05:40:36;24.47;;;6.30;;
11777;SDS011;5946;51.770;8.548;2023-02-02T05:43:02;15.83;;;5.93;;
11777;SDS011;5946;51.770;8.548;2023-02-02T05:45:28;20.20;;;6.47;;
11777;SDS011;5946;51.770;8.548;2023-02-02T05:47:54;14.77;;;5.57;;
11777;SDS011;5946;51.770;8.548;2023-02-02T05:50:20;22.93;;;5.67;;
11777;SDS011;5946;51.770;8.548;2023-02-02T05:52:46;18.57;;;5.67;;
11777;SDS011;5946;51.770;8.548;2023-02-02T05:55:12;22.83;;;5.37;;
11777;SDS011;5946;51.770;8.548;2023-02-02T05:57:38;21.23;;;5.43;;
11777;SDS011;5946;51.770;8.548;2023-02-02T06:00:04;20.43;;;5.57;;
11777;SDS011;5946;51.770;8.548;2023-02-02T06:02:31;22.53;;;6.57;;
11777;SDS011;5946;51.770;8.548;2023-02-02T06:04:57;14.80;;;5.03;;
11777;SDS011;5946;51.770;8.548;2023-02-02T06:07:22;18.00;;;5.60;;
11777;SDS011;5946;51.770;8.548;2023-02-02T06:09:48;20.00;;;5.70;;
11777;SDS011;5946;51.770;8.548;2023-02-02T06:12:14;26.63;;;5.90;;
11777;SDS011;5946;51.770;8.548;2023-02-02T06:14:42;19.40;;;5.63;;
11777;SDS011;5946;51.770;8.548;2023-02-02T06:17:08;16.70;;;5.70;;
11777;SDS011;5946;51.770;8.548;2023-02-02T06:19:34;14.97;;;5.33;;
11777;SDS011;5946;51.770;8.548;2023-02-02T06:22:00;15.20;;;5.50;;
11777;SDS011;5946;51.770;8.548;2023-02-02T06:24:26;20.00;;;5.37;;
11777;SDS011;5946;51.770;8.548;2023-02-02T06:26:52;22.97;;;5.27;;
11777;SDS011;5946;51.770;8.548;2023-02-02T06:29:18;21.90;;;5.57;;
11777;SDS011;5946;51.770;8.548;2023-02-02T06:31:44;20.40;;;5.90;;
11777;SDS011;5946;51.770;8.548;2023-02-02T06:34:10;20.23;;;5.70;;
11777;SDS011;5946;51.770;8.548;2023-02-02T06:36:39;19.90;;;5.40;;
11777;SDS011;5946;51.770;8.548;2023-02-02T06:39:06;22.33;;;5.23;;
11777;SDS011;5946;51.770;8.548;2023-02-02T06:41:32;19.60;;;5.73;;
11777;SDS011;5946;51.770;8.548;2023-02-02T06:43:58;21.60;;;5.50;;
11777;SDS011;5946;51.770;8.548;2023-02-02T06:46:24;17.13;;;5.57;;
11777;SDS011;5946;51.770;8.548;2023-02-02T06:48:50;21.40;;;5.53;;
11777;SDS011;5946;51.770;8.548;2023-02-02T06:51:16;25.40;;;6.20;;
11777;SDS011;5946;51.770;8.548;2023-02-02T06:53:42;17.30;;;6.50;;
11777;SDS011;5946;51.770;8.548;2023-02-02T06:56:11;18.33;;;6.40;;
11777;SDS011;5946;51.770;8.548;2023-02-02T06:58:37;16.97;;;6.37;;
11777;SDS011;5946;51.770;8.548;2023-02-02T07:01:07;17.37;;;5.83;;
11777;SDS011;5946;51.770;8.548;2023-02-02T07:03:33;17.27;;;6.23;;
11777;SDS011;5946;51.770;8.548;2023-02-02T07:06:09;13.90;;;5.50;;
11777;SDS011;5946;51.770;8.548;2023-02-02T07:08:35;18.17;;;6.17;;
11777;SDS011;5946;51.770;8.548;2023-02-02T07:11:00;12.33;;;5.70;;
11777;SDS011;5946;51.770;8.548;2023-02-02T07:13:27;17.17;;;6.17;;
11777;SDS011;5946;51.770;8.548;2023-02-02T07:15:53;15.53;;;5.47;;
11777;SDS011;5946;51.770;8.548;2023-02-02T07:18:20;18.27;;;6.23;;
11777;SDS011;5946;51.770;8.548;2023-02-02T07:20:47;13.33;;;5.57;;
11777;SDS011;5946;51.770;8.548;2023-02-02T07:23:12;23.63;;;6.03;;
11777;SDS011;5946;51.770;8.548;2023-02-02T07:25:38;23.27;;;5.77;;
11777;SDS011;5946;51.770;8.548;2023-02-02T07:28:04;13.63;;;5.53;;
11777;SDS011;5946;51.770;8.548;2023-02-02T07:30:30;15.83;;;6.67;;
11777;SDS011;5946;51.770;8.548;2023-02-02T07:32:57;22.43;;;7.70;;
11777;SDS011;5946;51.770;8.548;2023-02-02T07:35:23;15.97;;;7.63;;
11777;SDS011;5946;51.770;8.548;2023-02-02T07:37:52;26.60;;;10.27;;
11777;SDS011;5946;51.770;8.548;2023-02-02T07:40:18;21.30;;;12.50;;
11777;SDS011;5946;51.770;8.548;2023-02-02T07:42:45;25.83;;;13.40;;
11777;SDS011;5946;51.770;8.548;2023-02-02T07:45:12;25.73;;;12.60;;
11777;SDS011;5946;51.770;8.548;2023-02-02T07:47:38;21.63;;;8.97;;
11777;SDS011;5946;51.770;8.548;2023-02-02T07:50:04;12.63;;;7.43;;
11777;SDS011;5946;51.770;8.548;2023-02-02T07:52:30;9.20;;;5.20;;
11777;SDS011;5946;51.770;8.548;2023-02-02T07:54:56;9.47;;;3.23;;
11777;SDS011;5946;51.770;8.548;2023-02-02T07:57:22;11.77;;;3.10;;
11777;SDS011;5946;51.770;8.548;2023-02-02T07:59:48;5.37;;;2.13;;
11777;SDS011;5946;51.770;8.548;2023-02-02T08:02:14;7.60;;;2.60;;
11777;SDS011;5946;51.770;8.548;2023-02-02T08:04:40;11.50;;;2.47;;
11777;SDS011;5946;51.770;8.548;2023-02-02T08:07:06;10.73;;;2.30;;
11777;SDS011;5946;51.770;8.548;2023-02-02T08:09:32;9.10;;;2.67;;
11777;SDS011;5946;51.770;8.548;2023-02-02T08:11:58;8.90;;;2.00;;
11777;SDS011;5946;51.770;8.548;2023-02-02T08:14:26;8.83;;;1.87;;
11777;SDS011;5946;51.770;8.548;2023-02-02T08:16:52;9.07;;;2.53;;
11777;SDS011;5946;51.770;8.548;2023-02-02T08:19:18;5.90;;;2.60;;
11777;SDS011;5946;51.770;8.548;2023-02-02T08:21:44;9.00;;;2.30;;
11777;SDS011;5946;51.770;8.548;2023-02-02T08:24:10;14.53;;;2.90;;
11777;SDS011;5946;51.770;8.548;2023-02-02T08:26:36;9.17;;;2.63;;
11777;SDS011;5946;51.770;8.548;2023-02-02T08:29:03;8.33;;;3.23;;
11777;SDS011;5946;51.770;8.548;2023-02-02T08:31:31;13.63;;;5.03;;
11777;SDS011;5946;51.770;8.548;2023-02-02T08:33:57;9.57;;;5.20;;
11777;SDS011;5946;51.770;8.548;2023-02-02T08:36:24;8.33;;;4.40;;
11777;SDS011;5946;51.770;8.548;2023-02-02T08:38:51;13.13;;;4.23;;
11777;SDS011;5946;51.770;8.548;2023-02-02T08:41:18;15.70;;;4.50;;
11777;SDS011;5946;51.770;8.548;2023-02-02T08:43:44;7.87;;;4.27;;
11777;SDS011;5946;51.770;8.548;2023-02-02T08:46:10;9.37;;;4.23;;
11777;SDS011;5946;51.770;8.548;2023-02-02T08:48:37;10.53;;;4.83;;
11777;SDS011;5946;51.770;8.548;2023-02-02T08:51:04;10.33;;;4.47;;
11777;SDS011;5946;51.770;8.548;2023-02-02T08:53:30;7.67;;;4.27;;
11777;SDS011;5946;51.770;8.548;2023-02-02T08:55:57;15.20;;;4.90;;
11777;SDS011;5946;51.770;8.548;2023-02-02T08:58:23;15.67;;;4.93;;
11777;SDS011;5946;51.770;8.548;2023-02-02T09:00:49;15.47;;;5.60;;
11777;SDS011;5946;51.770;8.548;2023-02-02T09:03:15;13.40;;;5.27;;
11777;SDS011;5946;51.770;8.548;2023-02-02T09:05:41;15.50;;;5.40;;
11777;SDS011;5946;51.770;8.548;2023-02-02T09:08:08;10.73;;;5.63;;
11777;SDS011;5946;51.770;8.548;2023-02-02T09:10:34;14.17;;;4.90;;
11777;SDS011;5946;51.770;8.548;2023-02-02T09:13:00;11.57;;;5.77;;
11777;SDS011;5946;51.770;8.548;2023-02-02T09:15:27;10.30;;;5.53;;
11777;SDS011;5946;51.770;8.548;2023-02-02T09:17:52;16.50;;;8.87;;
11777;SDS011;5946;51.770;8.548;2023-02-02T09:20:18;17.70;;;8.67;;
11777;SDS011;5946;51.770;8.548;2023-02-02T09:22:44;25.53;;;12.00;;
11777;SDS011;5946;51.770;8.548;2023-02-02T09:25:10;25.07;;;14.60;;
11777;SDS011;5946;51.770;8.548;2023-02-02T09:27:36;31.13;;;16.37;;
11777;SDS011;5946;51.770;8.548;2023-02-02T09:30:05;17.83;;;10.10;;
11777;SDS011;5946;51.770;8.548;2023-02-02T09:32:31;18.27;;;9.93;;
11777;SDS011;5946;51.770;8.548;2023-02-02T09:34:57;19.43;;;10.40;;
11777;SDS011;5946;51.770;8.548;2023-02-02T09:37:24;16.70;;;10.27;;
11777;SDS011;5946;51.770;8.548;2023-02-02T09:39:50;19.13;;;10.57;;
11777;SDS011;5946;51.770;8.548;2023-02-02T09:45:07;18.03;;;8.47;;
11777;SDS011;5946;51.770;8.548;2023-02-02T09:47:46;19.17;;;7.77;;
11777;SDS011;5946;51.770;8.548;2023-02-02T09:52:58;13.40;;;5.93;;
11777;SDS011;5946;51.770;8.548;2023-02-02T09:55:35;11.53;;;6.40;;
11777;SDS011;5946;51.770;8.548;2023-02-02T09:58:25;10.63;;;5.57;;
11777;SDS011;5946;51.770;8.548;2023-02-02T10:00:58;17.93;;;6.77;;
11777;SDS011;5946;51.770;8.548;2023-02-02T10:05:56;22.13;;;5.80;;
11777;SDS011;5946;51.770;8.548;2023-02-02T10:08:24;10.17;;;5.60;;
11777;SDS011;5946;51.770;8.548;2023-02-02T10:10:52;16.37;;;6.70;;
11777;SDS011;5946;51.770;8.548;2023-02-02T10:13:20;15.10;;;6.87;;
11777;SDS011;5946;51.770;8.548;2023-02-02T10:20:53;17.70;;;10.03;;
11777;SDS011;5946;51.770;8.548;2023-02-02T10:23:40;20.40;;;10.60;;
11777;SDS011;5946;51.770;8.548;2023-02-02T10:26:20;13.90;;;7.57;;
11777;SDS011;5946;51.770;8.548;2023-02-02T10:28:50;15.47;;;6.60;;
11777;SDS011;5946;51.770;8.548;2023-02-02T10:31:40;12.23;;;5.97;;
11777;SDS011;5946;51.770;8.548;2023-02-02T10:34:14;15.87;;;6.20;;
11777;SDS011;5946;51.770;8.548;2023-02-02T10:36:46;11.13;;;6.43;;
11777;SDS011;5946;51.770;8.548;2023-02-02T10:39:22;13.23;;;6.17;;
11777;SDS011;5946;51.770;8.548;2023-02-02T10:47:00;15.00;;;7.23;;
11777;SDS011;5946;51.770;8.548;2023-02-02T10:57:10;15.97;;;6.83;;
11777;SDS011;5946;51.770;8.548;2023-02-02T10:59:42;19.50;;;14.47;;
11777;SDS011;5946;51.770;8.548;2023-02-02T11:02:11;17.67;;;12.60;;
11777;SDS011;5946;51.770;8.548;2023-02-02T11:04:37;14.63;;;9.50;;
11777;SDS011;5946;51.770;8.548;2023-02-02T11:07:21;19.10;;;10.77;;
11777;SDS011;5946;51.770;8.548;2023-02-02T11:09:47;21.13;;;8.40;;
11777;SDS011;5946;51.770;8.548;2023-02-02T11:14:51;11.03;;;6.67;;
11777;SDS011;5946;51.770;8.548;2023-02-02T11:17:20;15.10;;;7.83;;
11777;SDS011;5946;51.770;8.548;2023-02-02T11:19:46;13.13;;;6.70;;
11777;SDS011;5946;51.770;8.548;2023-02-02T11:25:03;12.87;;;7.50;;
11777;SDS011;5946;51.770;8.548;2023-02-02T11:27:39;13.13;;;7.07;;
11777;SDS011;5946;51.770;8.548;2023-02-02T11:30:48;14.37;;;7.07;;
11777;SDS011;5946;51.770;8.548;2023-02-02T11:32:55;16.03;;;7.57;;
11777;SDS011;5946;51.770;8.548;2023-02-02T11:35:22;12.03;;;6.43;;
11777;SDS011;5946;51.770;8.548;2023-02-02T11:37:53;9.77;;;6.50;;
11777;SDS011;5946;51.770;8.548;2023-02-02T11:43:23;13.80;;;6.30;;
11777;SDS011;5946;51.770;8.548;2023-02-02T11:46:01;16.87;;;7.30;;
11777;SDS011;5946;51.770;8.548;2023-02-02T11:48:35;12.90;;;7.27;;
11777;SDS011;5946;51.770;8.548;2023-02-02T11:51:02;13.10;;;6.67;;
11777;SDS011;5946;51.770;8.548;2023-02-02T11:53:30;14.10;;;7.50;;
11777;SDS011;5946;51.770;8.548;2023-02-02T11:56:01;15.53;;;7.77;;
11777;SDS011;5946;51.770;8.548;2023-02-02T11:58:41;18.83;;;8.03;;
11777;SDS011;5946;51.770;8.548;2023-02-02T12:01:08;19.13;;;9.77;;
11777;SDS011;5946;51.770;8.548;2023-02-02T12:03:40;16.90;;;6.70;;
11777;SDS011;5946;51.770;8.548;2023-02-02T12:06:22;11.63;;;7.03;;
11777;SDS011;5946;51.770;8.548;2023-02-02T12:08:49;15.73;;;9.07;;
11777;SDS011;5946;51.770;8.548;2023-02-02T12:11:37;17.43;;;9.77;;
11777;SDS011;5946;51.770;8.548;2023-02-02T12:22:21;14.97;;;6.67;;
11777;SDS011;5946;51.770;8.548;2023-02-02T12:24:45;12.37;;;6.43;;
11777;SDS011;5946;51.770;8.548;2023-02-02T12:35:16;12.47;;;5.87;;
11777;SDS011;5946;51.770;8.548;2023-02-02T12:53:15;13.10;;;6.00;;
11777;SDS011;5946;51.770;8.548;2023-02-02T12:55:56;10.10;;;5.70;;
11777;SDS011;5946;51.770;8.548;2023-02-02T13:01:06;10.43;;;6.13;;
11777;SDS011;5946;51.770;8.548;2023-02-02T13:06:40;19.17;;;8.37;;
11777;SDS011;5946;51.770;8.548;2023-02-02T13:09:21;19.13;;;9.93;;
11777;SDS011;5946;51.770;8.548;2023-02-02T13:11:50;21.80;;;10.57;;
11777;SDS011;5946;51.770;8.548;2023-02-02T13:14:20;20.33;;;9.83;;
11777;SDS011;5946;51.770;8.548;2023-02-02T13:16:53;16.17;;;8.87;;
11777;SDS011;5946;51.770;8.548;2023-02-02T13:19:33;16.50;;;9.40;;
11777;SDS011;5946;51.770;8.548;2023-02-02T13:22:00;13.73;;;8.30;;
11777;SDS011;5946;51.770;8.548;2023-02-02T13:24:30;11.33;;;6.90;;
11777;SDS011;5946;51.770;8.548;2023-02-02T13:27:01;11.70;;;6.43;;
11777;SDS011;5946;51.770;8.548;2023-02-02T13:29:34;13.20;;;5.90;;
11777;SDS011;5946;51.770;8.548;2023-02-02T13:34:49;14.73;;;7.77;;
11777;SDS011;5946;51.770;8.548;2023-02-02T13:37:21;10.50;;;6.70;;
11777;SDS011;5946;51.770;8.548;2023-02-02T13:40:00;16.57;;;7.40;;
11777;SDS011;5946;51.770;8.548;2023-02-02T13:42:34;24.20;;;7.53;;
11777;SDS011;5946;51.770;8.548;2023-02-02T13:45:16;15.13;;;7.37;;
11777;SDS011;5946;51.770;8.548;2023-02-02T13:47:48;12.23;;;7.97;;
11777;SDS011;5946;51.770;8.548;2023-02-02T13:50:16;13.13;;;6.90;;
11777;SDS011;5946;51.770;8.548;2023-02-02T13:52:51;14.43;;;7.60;;
11777;SDS011;5946;51.770;8.548;2023-02-02T13:58:10;19.33;;;8.90;;
11777;SDS011;5946;51.770;8.548;2023-02-02T14:00:39;14.87;;;10.03;;
11777;SDS011;5946;51.770;8.548;2023-02-02T14:03:20;16.83;;;8.63;;
11777;SDS011;5946;51.770;8.548;2023-02-02T14:08:32;15.57;;;9.37;;
11777;SDS011;5946;51.770;8.548;2023-02-02T14:11:00;16.10;;;9.33;;
11777;SDS011;5946;51.770;8.548;2023-02-02T14:19:04;16.97;;;7.80;;
11777;SDS011;5946;51.770;8.548;2023-02-02T14:26:44;15.97;;;9.13;;
11777;SDS011;5946;51.770;8.548;2023-02-02T14:34:35;15.63;;;9.17;;
11777;SDS011;5946;51.770;8.548;2023-02-02T14:47:46;14.67;;;9.13;;
11777;SDS011;5946;51.770;8.548;2023-02-02T14:50:27;21.37;;;10.40;;
11777;SDS011;5946;51.770;8.548;2023-02-02T14:52:58;18.67;;;8.67;;
11777;SDS011;5946;51.770;8.548;2023-02-02T14:55:24;16.77;;;8.73;;
11777;SDS011;5946;51.770;8.548;2023-02-02T14:57:52;21.07;;;9.87;;
11777;SDS011;5946;51.770;8.548;2023-02-02T15:00:26;18.27;;;10.40;;
11777;SDS011;5946;51.770;8.548;2023-02-02T15:02:52;17.67;;;9.57;;
11777;SDS011;5946;51.770;8.548;2023-02-02T15:08:11;19.50;;;13.70;;
11777;SDS011;5946;51.770;8.548;2023-02-02T15:13:20;23.77;;;13.20;;
11777;SDS011;5946;51.770;8.548;2023-02-02T15:15:49;24.53;;;14.50;;
11777;SDS011;5946;51.770;8.548;2023-02-02T15:18:21;23.27;;;14.47;;
11777;SDS011;5946;51.770;8.548;2023-02-02T15:20:49;18.43;;;12.87;;
11777;SDS011;5946;51.770;8.548;2023-02-02T15:25:55;19.53;;;11.93;;
11777;SDS011;5946;51.770;8.548;2023-02-02T15:31:14;21.07;;;13.00;;
11777;SDS011;5946;51.770;8.548;2023-02-02T15:33:42;22.97;;;13.20;;
11777;SDS011;5946;51.770;8.548;2023-02-02T15:36:09;23.30;;;13.57;;
11777;SDS011;5946;51.770;8.548;2023-02-02T15:38:36;23.03;;;12.20;;
11777;SDS011;5946;51.770;8.548;2023-02-02T15:41:04;23.20;;;13.63;;
11777;SDS011;5946;51.770;8.548;2023-02-02T15:43:31;22.53;;;13.40;;
11777;SDS011;5946;51.770;8.548;2023-02-02T15:46:03;21.33;;;15.20;;
11777;SDS011;5946;51.770;8.548;2023-02-02T15:48:30;23.53;;;14.63;;
11777;SDS011;5946;51.770;8.548;2023-02-02T15:50:59;23.50;;;14.37;;
11777;SDS011;5946;51.770;8.548;2023-02-02T15:53:26;27.90;;;15.77;;
11777;SDS011;5946;51.770;8.548;2023-02-02T15:55:54;23.37;;;15.37;;
11777;SDS011;5946;51.770;8.548;2023-02-02T15:58:25;27.33;;;15.20;;
11777;SDS011;5946;51.770;8.548;2023-02-02T16:00:56;25.90;;;14.97;;
11777;SDS011;5946;51.770;8.548;2023-02-02T16:03:24;17.33;;;12.47;;
11777;SDS011;5946;51.770;8.548;2023-02-02T16:05:52;24.40;;;14.80;;
11777;SDS011;5946;51.770;8.548;2023-02-02T16:08:29;24.90;;;15.33;;
11777;SDS011;5946;51.770;8.548;2023-02-02T16:11:05;24.33;;;15.57;;
11777;SDS011;5946;51.770;8.548;2023-02-02T16:13:32;21.07;;;14.93;;
11777;SDS011;5946;51.770;8.548;2023-02-02T16:15:59;25.53;;;16.03;;
11777;SDS011;5946;51.770;8.548;2023-02-02T16:18:25;29.70;;;18.27;;
11777;SDS011;5946;51.770;8.548;2023-02-02T16:20:51;28.97;;;17.23;;
11777;SDS011;5946;51.770;8.548;2023-02-02T16:23:21;26.43;;;15.43;;
11777;SDS011;5946;51.770;8.548;2023-02-02T16:25:48;28.13;;;18.33;;
11777;SDS011;5946;51.770;8.548;2023-02-02T16:28:19;25.47;;;16.27;;
11777;SDS011;5946;51.770;8.548;2023-02-02T16:30:46;26.50;;;16.50;;
11777;SDS011;5946;51.770;8.548;2023-02-02T16:33:25;24.17;;;15.10;;
11777;SDS011;5946;51.770;8.548;2023-02-02T16:35:51;19.27;;;11.83;;
11777;SDS011;5946;51.770;8.548;2023-02-02T16:41:03;20.47;;;12.80;;
11777;SDS011;5946;51.770;8.548;2023-02-02T16:43:30;20.73;;;15.40;;
11777;SDS011;5946;51.770;8.548;2023-02-02T16:45:57;22.73;;;14.20;;
11777;SDS011;5946;51.770;8.548;2023-02-02T16:51:01;19.23;;;13.27;;
11777;SDS011;5946;51.770;8.548;2023-02-02T16:53:28;18.13;;;11.90;;
11777;SDS011;5946;51.770;8.548;2023-02-02T16:55:54;24.37;;;15.07;;
11777;SDS011;5946;51.770;8.548;2023-02-02T16:58:22;23.07;;;13.40;;
11777;SDS011;5946;51.770;8.548;2023-02-02T17:00:54;23.90;;;14.20;;
11777;SDS011;5946;51.770;8.548;2023-02-02T17:03:22;24.07;;;15.40;;
11777;SDS011;5946;51.770;8.548;2023-02-02T17:05:50;20.30;;;13.93;;
11777;SDS011;5946;51.770;8.548;2023-02-02T17:08:38;27.30;;;18.43;;
11777;SDS011;5946;51.770;8.548;2023-02-02T17:13:42;21.97;;;15.80;;
11777;SDS011;5946;51.770;8.548;2023-02-02T17:16:13;24.57;;;15.33;;
11777;SDS011;5946;51.770;8.548;2023-02-02T17:18:40;23.87;;;16.00;;
11777;SDS011;5946;51.770;8.548;2023-02-02T17:21:06;22.57;;;16.87;;